sensor_id;sensor_type;location;lat;lon;timestamp;temperature;humidity
20803;DHT22;10562;-33.856;151.182;2023-01-13T00:01:37;27.10;99.90
20803;DHT22;10562;-33.856;151.182;2023-01-13T00:04:09;27.50;99.90
20803;DHT22;10562;-33.856;151.182;2023-01-13T00:06:40;27.60;99.90
20803;DHT22;10562;-33.856;151.182;2023-01-13T00:09:11;27.50;99.90
20803;DHT22;10562;-33.856;151.182;2023-01-13T00:11:41;27.30;99.90
20803;DHT22;10562;-33.856;151.182;2023-01-13T00:14:12;27.20;99.90
20803;DHT22;10562;-33.856;151.182;2023-01-13T00:16:45;27.40;99.90
20803;DHT22;10562;-33.856;151.182;2023-01-13T00:19:16;27.40;99.90
20803;DHT22;10562;-33.856;151.182;2023-01-13T00:21:47;27.80;99.90
20803;DHT22;10562;-33.856;151.182;2023-01-13T00:24:17;27.90;99.90
20803;DHT22;10562;-33.856;151.182;2023-01-13T00:26:48;27.80;99.90
20803;DHT22;10562;-33.856;151.182;2023-01-13T00:29:20;27.80;99.90
20803;DHT22;10562;-33.856;151.182;2023-01-13T00:31:54;27.80;99.90
20803;DHT22;10562;-33.856;151.182;2023-01-13T00:34:25;27.60;99.90
20803;DHT22;10562;-33.856;151.182;2023-01-13T00:36:56;27.30;99.90
20803;DHT22;10562;-33.856;151.182;2023-01-13T00:39:27;27.10;99.90
20803;DHT22;10562;-33.856;151.182;2023-01-13T00:41:58;26.90;99.90
20803;DHT22;10562;-33.856;151.182;2023-01-13T00:44:45;26.70;99.90
20803;DHT22;10562;-33.856;151.182;2023-01-13T00:47:17;26.40;99.90
20803;DHT22;10562;-33.856;151.182;2023-01-13T00:49:48;26.50;99.90
20803;DHT22;10562;-33.856;151.182;2023-01-13T00:52:19;26.40;99.90
20803;DHT22;10562;-33.856;151.182;2023-01-13T00:54:49;26.20;99.90
20803;DHT22;10562;-33.856;151.182;2023-01-13T00:57:21;26.30;99.90
20803;DHT22;10562;-33.856;151.182;2023-01-13T00:59:52;26.80;99.90
20803;DHT22;10562;-33.856;151.182;2023-01-13T01:02:24;27.50;99.90
20803;DHT22;10562;-33.856;151.182;2023-01-13T01:04:55;27.80;99.90
20803;DHT22;10562;-33.856;151.182;2023-01-13T01:07:27;27.90;99.90
20803;DHT22;10562;-33.856;151.182;2023-01-13T01:09:57;28.00;99.90
20803;DHT22;10562;-33.856;151.182;2023-01-13T01:12:28;28.00;99.90
20803;DHT22;10562;-33.856;151.182;2023-01-13T01:14:59;27.90;99.90
20803;DHT22;10562;-33.856;151.182;2023-01-13T01:17:31;27.70;99.90
20803;DHT22;10562;-33.856;151.182;2023-01-13T01:20:02;27.40;99.90
20803;DHT22;10562;-33.856;151.182;2023-01-13T01:22:33;27.60;99.90
20803;DHT22;10562;-33.856;151.182;2023-01-13T01:25:04;27.70;99.90
20803;DHT22;10562;-33.856;151.182;2023-01-13T01:27:35;28.20;99.90
20803;DHT22;10562;-33.856;151.182;2023-01-13T01:30:08;28.50;99.90
20803;DHT22;10562;-33.856;151.182;2023-01-13T01:32:41;28.90;99.90
20803;DHT22;10562;-33.856;151.182;2023-01-13T01:35:12;29.20;99.90
20803;DHT22;10562;-33.856;151.182;2023-01-13T01:37:42;29.10;99.90
20803;DHT22;10562;-33.856;151.182;2023-01-13T01:40:13;29.00;99.90
20803;DHT22;10562;-33.856;151.182;2023-01-13T01:42:44;29.00;99.90
20803;DHT22;10562;-33.856;151.182;2023-01-13T01:45:31;28.90;99.90
20803;DHT22;10562;-33.856;151.182;2023-01-13T01:48:04;28.90;99.90
20803;DHT22;10562;-33.856;151.182;2023-01-13T01:50:36;28.70;99.90
20803;DHT22;10562;-33.856;151.182;2023-01-13T01:53:10;28.40;99.90
20803;DHT22;10562;-33.856;151.182;2023-01-13T01:55:42;28.60;99.90
20803;DHT22;10562;-33.856;151.182;2023-01-13T01:58:16;28.70;99.90
20803;DHT22;10562;-33.856;151.182;2023-01-13T02:00:47;29.00;99.90
20803;DHT22;10562;-33.856;151.182;2023-01-13T02:03:21;29.50;99.90
20803;DHT22;10562;-33.856;151.182;2023-01-13T02:05:52;29.10;99.90
20803;DHT22;10562;-33.856;151.182;2023-01-13T02:08:23;28.90;99.90
20803;DHT22;10562;-33.856;151.182;2023-01-13T02:10:54;29.20;99.90
20803;DHT22;10562;-33.856;151.182;2023-01-13T02:13:25;29.40;99.90
20803;DHT22;10562;-33.856;151.182;2023-01-13T02:16:01;29.50;99.90
20803;DHT22;10562;-33.856;151.182;2023-01-13T02:18:47;29.50;99.90
20803;DHT22;10562;-33.856;151.182;2023-01-13T02:28:01;28.90;99.90
20803;DHT22;10562;-33.856;151.182;2023-01-13T02:30:41;28.60;99.90
20803;DHT22;10562;-33.856;151.182;2023-01-13T02:33:46;28.70;99.90
20803;DHT22;10562;-33.856;151.182;2023-01-13T02:36:26;28.40;99.90
20803;DHT22;10562;-33.856;151.182;2023-01-13T02:39:09;28.20;99.90
20803;DHT22;10562;-33.856;151.182;2023-01-13T02:41:46;28.20;99.90
20803;DHT22;10562;-33.856;151.182;2023-01-13T02:44:43;28.00;99.90
20803;DHT22;10562;-33.856;151.182;2023-01-13T02:47:19;28.20;99.90
20803;DHT22;10562;-33.856;151.182;2023-01-13T02:49:53;28.30;99.90
20803;DHT22;10562;-33.856;151.182;2023-01-13T02:52:27;28.40;99.90
20803;DHT22;10562;-33.856;151.182;2023-01-13T02:55:04;28.50;99.90
20803;DHT22;10562;-33.856;151.182;2023-01-13T02:57:37;28.50;99.90
20803;DHT22;10562;-33.856;151.182;2023-01-13T03:00:10;28.50;99.90
20803;DHT22;10562;-33.856;151.182;2023-01-13T03:02:43;28.50;99.90
20803;DHT22;10562;-33.856;151.182;2023-01-13T03:05:15;28.50;99.90
20803;DHT22;10562;-33.856;151.182;2023-01-13T03:08:10;28.30;99.90
20803;DHT22;10562;-33.856;151.182;2023-01-13T03:10:57;28.20;99.90
20803;DHT22;10562;-33.856;151.182;2023-01-13T03:13:51;28.30;99.90
20803;DHT22;10562;-33.856;151.182;2023-01-13T03:16:31;28.20;99.90
20803;DHT22;10562;-33.856;151.182;2023-01-13T03:19:16;28.30;99.90
20803;DHT22;10562;-33.856;151.182;2023-01-13T03:21:53;28.30;99.90
20803;DHT22;10562;-33.856;151.182;2023-01-13T03:24:29;28.30;99.90
20803;DHT22;10562;-33.856;151.182;2023-01-13T03:27:07;28.40;99.90
20803;DHT22;10562;-33.856;151.182;2023-01-13T03:29:47;28.10;99.90
20803;DHT22;10562;-33.856;151.182;2023-01-13T03:32:22;28.00;99.90
20803;DHT22;10562;-33.856;151.182;2023-01-13T03:35:01;27.90;99.90
20803;DHT22;10562;-33.856;151.182;2023-01-13T03:37:36;27.90;99.90
20803;DHT22;10562;-33.856;151.182;2023-01-13T03:40:11;28.00;99.90
20803;DHT22;10562;-33.856;151.182;2023-01-13T03:42:49;28.20;99.90
20803;DHT22;10562;-33.856;151.182;2023-01-13T03:45:35;28.60;99.90
20803;DHT22;10562;-33.856;151.182;2023-01-13T03:48:10;28.80;99.90
20803;DHT22;10562;-33.856;151.182;2023-01-13T03:50:46;28.90;99.90
20803;DHT22;10562;-33.856;151.182;2023-01-13T03:53:21;29.20;99.90
20803;DHT22;10562;-33.856;151.182;2023-01-13T03:55:55;29.30;99.90
20803;DHT22;10562;-33.856;151.182;2023-01-13T03:58:30;29.70;99.90
20803;DHT22;10562;-33.856;151.182;2023-01-13T04:01:04;30.30;99.90
20803;DHT22;10562;-33.856;151.182;2023-01-13T04:03:39;30.50;99.90
20803;DHT22;10562;-33.856;151.182;2023-01-13T04:06:17;30.40;99.90
20803;DHT22;10562;-33.856;151.182;2023-01-13T04:08:54;30.00;99.90
20803;DHT22;10562;-33.856;151.182;2023-01-13T04:11:31;29.90;99.90
20803;DHT22;10562;-33.856;151.182;2023-01-13T04:14:05;30.00;99.90
20803;DHT22;10562;-33.856;151.182;2023-01-13T04:16:38;30.40;99.90
20803;DHT22;10562;-33.856;151.182;2023-01-13T04:19:10;30.20;99.90
20803;DHT22;10562;-33.856;151.182;2023-01-13T04:21:43;30.20;99.90
20803;DHT22;10562;-33.856;151.182;2023-01-13T04:24:14;29.90;99.90
20803;DHT22;10562;-33.856;151.182;2023-01-13T04:26:45;29.80;99.90
20803;DHT22;10562;-33.856;151.182;2023-01-13T04:29:15;29.40;99.90
20803;DHT22;10562;-33.856;151.182;2023-01-13T04:31:46;29.00;99.90
20803;DHT22;10562;-33.856;151.182;2023-01-13T04:34:17;28.80;99.90
20803;DHT22;10562;-33.856;151.182;2023-01-13T04:36:52;28.70;99.90
20803;DHT22;10562;-33.856;151.182;2023-01-13T04:39:22;28.60;99.90
20803;DHT22;10562;-33.856;151.182;2023-01-13T04:41:54;28.20;99.90
20803;DHT22;10562;-33.856;151.182;2023-01-13T04:44:29;28.00;99.90
20803;DHT22;10562;-33.856;151.182;2023-01-13T04:47:02;28.00;99.90
20803;DHT22;10562;-33.856;151.182;2023-01-13T04:49:32;28.10;99.90
20803;DHT22;10562;-33.856;151.182;2023-01-13T04:52:05;27.90;99.90
20803;DHT22;10562;-33.856;151.182;2023-01-13T04:54:36;27.90;99.90
20803;DHT22;10562;-33.856;151.182;2023-01-13T04:57:07;28.00;99.90
20803;DHT22;10562;-33.856;151.182;2023-01-13T04:59:38;28.30;99.90
20803;DHT22;10562;-33.856;151.182;2023-01-13T05:02:10;28.20;99.90
20803;DHT22;10562;-33.856;151.182;2023-01-13T05:04:46;28.10;99.90
20803;DHT22;10562;-33.856;151.182;2023-01-13T05:07:19;27.80;99.90
20803;DHT22;10562;-33.856;151.182;2023-01-13T05:09:49;27.70;99.90
20803;DHT22;10562;-33.856;151.182;2023-01-13T05:12:20;27.80;99.90
20803;DHT22;10562;-33.856;151.182;2023-01-13T05:15:08;27.60;99.90
20803;DHT22;10562;-33.856;151.182;2023-01-13T05:17:57;27.70;99.90
20803;DHT22;10562;-33.856;151.182;2023-01-13T05:20:27;27.80;99.90
20803;DHT22;10562;-33.856;151.182;2023-01-13T05:23:00;28.20;99.90
20803;DHT22;10562;-33.856;151.182;2023-01-13T05:25:47;28.70;99.90
20803;DHT22;10562;-33.856;151.182;2023-01-13T05:28:18;29.10;99.90
20803;DHT22;10562;-33.856;151.182;2023-01-13T05:30:49;29.10;99.90
20803;DHT22;10562;-33.856;151.182;2023-01-13T05:33:21;29.50;99.90
20803;DHT22;10562;-33.856;151.182;2023-01-13T05:35:53;30.00;99.90
20803;DHT22;10562;-33.856;151.182;2023-01-13T05:38:26;30.80;99.90
20803;DHT22;10562;-33.856;151.182;2023-01-13T05:40:59;30.90;99.90
20803;DHT22;10562;-33.856;151.182;2023-01-13T05:43:46;30.50;99.90
20803;DHT22;10562;-33.856;151.182;2023-01-13T05:46:16;30.70;99.90
20803;DHT22;10562;-33.856;151.182;2023-01-13T05:48:47;30.10;99.90
20803;DHT22;10562;-33.856;151.182;2023-01-13T05:51:18;29.40;99.90
20803;DHT22;10562;-33.856;151.182;2023-01-13T05:53:54;29.00;99.90
20803;DHT22;10562;-33.856;151.182;2023-01-13T05:56:25;28.70;99.90
20803;DHT22;10562;-33.856;151.182;2023-01-13T05:58:56;28.20;99.90
20803;DHT22;10562;-33.856;151.182;2023-01-13T06:01:27;27.90;99.90
20803;DHT22;10562;-33.856;151.182;2023-01-13T06:03:58;27.40;99.90
20803;DHT22;10562;-33.856;151.182;2023-01-13T06:06:28;26.80;99.90
20803;DHT22;10562;-33.856;151.182;2023-01-13T06:09:01;26.60;99.90
20803;DHT22;10562;-33.856;151.182;2023-01-13T06:11:32;26.50;99.90
20803;DHT22;10562;-33.856;151.182;2023-01-13T06:14:02;26.40;99.90
20803;DHT22;10562;-33.856;151.182;2023-01-13T06:16:33;26.30;99.90
20803;DHT22;10562;-33.856;151.182;2023-01-13T06:19:04;26.10;99.90
20803;DHT22;10562;-33.856;151.182;2023-01-13T06:21:36;26.10;99.90
20803;DHT22;10562;-33.856;151.182;2023-01-13T06:24:08;25.90;99.90
20803;DHT22;10562;-33.856;151.182;2023-01-13T06:26:40;25.90;99.90
20803;DHT22;10562;-33.856;151.182;2023-01-13T06:29:12;25.90;99.90
20803;DHT22;10562;-33.856;151.182;2023-01-13T06:31:44;25.70;99.90
20803;DHT22;10562;-33.856;151.182;2023-01-13T06:34:15;25.70;99.90
20803;DHT22;10562;-33.856;151.182;2023-01-13T06:36:50;25.70;99.90
20803;DHT22;10562;-33.856;151.182;2023-01-13T06:39:25;25.70;99.90
20803;DHT22;10562;-33.856;151.182;2023-01-13T06:41:58;25.70;99.90
20803;DHT22;10562;-33.856;151.182;2023-01-13T06:44:46;25.70;99.90
20803;DHT22;10562;-33.856;151.182;2023-01-13T06:47:17;25.70;99.90
20803;DHT22;10562;-33.856;151.182;2023-01-13T06:49:49;25.80;99.90
20803;DHT22;10562;-33.856;151.182;2023-01-13T06:52:20;25.70;99.90
20803;DHT22;10562;-33.856;151.182;2023-01-13T06:54:53;25.70;99.90
20803;DHT22;10562;-33.856;151.182;2023-01-13T06:57:23;25.60;99.90
20803;DHT22;10562;-33.856;151.182;2023-01-13T06:59:54;25.40;99.90
20803;DHT22;10562;-33.856;151.182;2023-01-13T07:02:25;25.30;99.90
20803;DHT22;10562;-33.856;151.182;2023-01-13T07:04:56;25.30;99.90
20803;DHT22;10562;-33.856;151.182;2023-01-13T07:07:27;25.30;99.90
20803;DHT22;10562;-33.856;151.182;2023-01-13T07:10:01;25.30;99.90
20803;DHT22;10562;-33.856;151.182;2023-01-13T07:12:32;25.20;99.90
20803;DHT22;10562;-33.856;151.182;2023-01-13T07:15:22;25.20;99.90
20803;DHT22;10562;-33.856;151.182;2023-01-13T07:17:52;25.20;99.90
20803;DHT22;10562;-33.856;151.182;2023-01-13T07:20:23;25.20;99.90
20803;DHT22;10562;-33.856;151.182;2023-01-13T07:22:54;25.10;99.90
20803;DHT22;10562;-33.856;151.182;2023-01-13T07:25:27;25.20;99.90
20803;DHT22;10562;-33.856;151.182;2023-01-13T07:27:59;25.10;99.90
20803;DHT22;10562;-33.856;151.182;2023-01-13T07:30:30;25.00;99.90
20803;DHT22;10562;-33.856;151.182;2023-01-13T07:33:01;24.90;99.90
20803;DHT22;10562;-33.856;151.182;2023-01-13T07:35:31;24.90;99.90
20803;DHT22;10562;-33.856;151.182;2023-01-13T07:38:02;24.90;99.90
20803;DHT22;10562;-33.856;151.182;2023-01-13T07:40:35;24.90;99.90
20803;DHT22;10562;-33.856;151.182;2023-01-13T07:43:06;24.90;99.90
20803;DHT22;10562;-33.856;151.182;2023-01-13T07:45:56;24.80;99.90
20803;DHT22;10562;-33.856;151.182;2023-01-13T07:48:27;24.80;99.90
20803;DHT22;10562;-33.856;151.182;2023-01-13T07:51:02;24.60;99.90
20803;DHT22;10562;-33.856;151.182;2023-01-13T07:53:34;24.50;99.90
20803;DHT22;10562;-33.856;151.182;2023-01-13T07:56:07;24.50;99.90
20803;DHT22;10562;-33.856;151.182;2023-01-13T07:58:38;24.40;99.90
20803;DHT22;10562;-33.856;151.182;2023-01-13T08:01:10;24.40;99.90
20803;DHT22;10562;-33.856;151.182;2023-01-13T08:03:41;24.30;99.90
20803;DHT22;10562;-33.856;151.182;2023-01-13T08:06:12;24.30;99.90
20803;DHT22;10562;-33.856;151.182;2023-01-13T08:08:43;24.30;99.90
20803;DHT22;10562;-33.856;151.182;2023-01-13T08:11:16;24.30;99.90
20803;DHT22;10562;-33.856;151.182;2023-01-13T08:13:47;24.20;99.90
20803;DHT22;10562;-33.856;151.182;2023-01-13T08:16:17;24.20;99.90
20803;DHT22;10562;-33.856;151.182;2023-01-13T08:18:49;24.20;99.90
20803;DHT22;10562;-33.856;151.182;2023-01-13T08:21:19;24.20;99.90
20803;DHT22;10562;-33.856;151.182;2023-01-13T08:23:50;24.20;99.90
20803;DHT22;10562;-33.856;151.182;2023-01-13T08:26:27;24.10;99.90
20803;DHT22;10562;-33.856;151.182;2023-01-13T08:28:58;24.10;99.90
20803;DHT22;10562;-33.856;151.182;2023-01-13T08:31:29;24.00;99.90
20803;DHT22;10562;-33.856;151.182;2023-01-13T08:34:00;24.00;99.90
20803;DHT22;10562;-33.856;151.182;2023-01-13T08:36:30;24.00;99.90
20803;DHT22;10562;-33.856;151.182;2023-01-13T08:39:01;24.00;99.90
20803;DHT22;10562;-33.856;151.182;2023-01-13T08:41:34;24.00;99.90
20803;DHT22;10562;-33.856;151.182;2023-01-13T08:44:21;23.90;99.90
20803;DHT22;10562;-33.856;151.182;2023-01-13T08:46:52;23.90;99.90
20803;DHT22;10562;-33.856;151.182;2023-01-13T08:49:23;23.80;99.90
20803;DHT22;10562;-33.856;151.182;2023-01-13T08:51:54;23.80;99.90
20803;DHT22;10562;-33.856;151.182;2023-01-13T08:54:25;23.80;99.90
20803;DHT22;10562;-33.856;151.182;2023-01-13T08:56:57;23.70;99.90
20803;DHT22;10562;-33.856;151.182;2023-01-13T08:59:30;23.70;99.90
20803;DHT22;10562;-33.856;151.182;2023-01-13T09:02:00;23.70;99.90
20803;DHT22;10562;-33.856;151.182;2023-01-13T09:04:31;23.70;99.90
20803;DHT22;10562;-33.856;151.182;2023-01-13T09:07:02;23.60;99.90
20803;DHT22;10562;-33.856;151.182;2023-01-13T09:09:33;23.60;99.90
20803;DHT22;10562;-33.856;151.182;2023-01-13T09:12:09;23.60;99.90
20803;DHT22;10562;-33.856;151.182;2023-01-13T09:14:52;23.60;99.90
20803;DHT22;10562;-33.856;151.182;2023-01-13T09:17:23;23.60;99.90
20803;DHT22;10562;-33.856;151.182;2023-01-13T09:19:54;23.60;99.90
20803;DHT22;10562;-33.856;151.182;2023-01-13T09:22:25;23.50;99.90
20803;DHT22;10562;-33.856;151.182;2023-01-13T09:24:56;23.50;99.90
20803;DHT22;10562;-33.856;151.182;2023-01-13T09:27:28;23.50;99.90
20803;DHT22;10562;-33.856;151.182;2023-01-13T09:29:59;23.50;99.90
20803;DHT22;10562;-33.856;151.182;2023-01-13T09:32:30;23.50;99.90
20803;DHT22;10562;-33.856;151.182;2023-01-13T09:35:00;23.50;99.90
20803;DHT22;10562;-33.856;151.182;2023-01-13T09:37:31;23.40;99.90
20803;DHT22;10562;-33.856;151.182;2023-01-13T09:40:03;23.30;99.90
20803;DHT22;10562;-33.856;151.182;2023-01-13T09:42:44;23.20;99.90
20803;DHT22;10562;-33.856;151.182;2023-01-13T09:45:33;23.20;99.90
20803;DHT22;10562;-33.856;151.182;2023-01-13T09:48:10;23.30;99.90
20803;DHT22;10562;-33.856;151.182;2023-01-13T09:50:57;23.20;99.90
20803;DHT22;10562;-33.856;151.182;2023-01-13T09:53:33;23.20;99.90
20803;DHT22;10562;-33.856;151.182;2023-01-13T09:56:09;23.20;99.90
20803;DHT22;10562;-33.856;151.182;2023-01-13T09:58:45;23.20;99.90
20803;DHT22;10562;-33.856;151.182;2023-01-13T10:01:25;23.20;99.90
20803;DHT22;10562;-33.856;151.182;2023-01-13T10:04:01;23.20;99.90
20803;DHT22;10562;-33.856;151.182;2023-01-13T10:06:35;23.20;99.90
20803;DHT22;10562;-33.856;151.182;2023-01-13T10:09:13;23.20;99.90
20803;DHT22;10562;-33.856;151.182;2023-01-13T10:11:49;23.20;99.90
20803;DHT22;10562;-33.856;151.182;2023-01-13T10:14:44;23.20;99.90
20803;DHT22;10562;-33.856;151.182;2023-01-13T10:17:23;23.20;99.90
20803;DHT22;10562;-33.856;151.182;2023-01-13T10:20:04;23.20;99.90
20803;DHT22;10562;-33.856;151.182;2023-01-13T10:22:58;23.20;99.90
20803;DHT22;10562;-33.856;151.182;2023-01-13T10:25:40;23.10;99.90
20803;DHT22;10562;-33.856;151.182;2023-01-13T10:28:15;23.10;99.90
20803;DHT22;10562;-33.856;151.182;2023-01-13T10:30:52;23.10;99.90
20803;DHT22;10562;-33.856;151.182;2023-01-13T10:33:24;23.10;99.90
20803;DHT22;10562;-33.856;151.182;2023-01-13T10:36:00;23.00;99.90
20803;DHT22;10562;-33.856;151.182;2023-01-13T10:38:37;23.10;99.90
20803;DHT22;10562;-33.856;151.182;2023-01-13T10:41:23;23.10;99.90
20803;DHT22;10562;-33.856;151.182;2023-01-13T10:44:00;23.10;99.90
20803;DHT22;10562;-33.856;151.182;2023-01-13T10:46:48;23.00;99.90
20803;DHT22;10562;-33.856;151.182;2023-01-13T10:49:29;23.00;99.90
20803;DHT22;10562;-33.856;151.182;2023-01-13T10:52:03;23.00;99.90
20803;DHT22;10562;-33.856;151.182;2023-01-13T10:54:55;22.90;99.90
20803;DHT22;10562;-33.856;151.182;2023-01-13T10:57:29;22.90;99.90
20803;DHT22;10562;-33.856;151.182;2023-01-13T11:00:14;22.90;99.90
20803;DHT22;10562;-33.856;151.182;2023-01-13T11:03:16;22.90;99.90
20803;DHT22;10562;-33.856;151.182;2023-01-13T11:05:55;22.80;99.90
20803;DHT22;10562;-33.856;151.182;2023-01-13T11:08:27;22.90;99.90
20803;DHT22;10562;-33.856;151.182;2023-01-13T11:10:59;22.80;99.90
20803;DHT22;10562;-33.856;151.182;2023-01-13T11:13:34;22.80;99.90
20803;DHT22;10562;-33.856;151.182;2023-01-13T11:16:29;22.80;99.90
20803;DHT22;10562;-33.856;151.182;2023-01-13T11:19:09;22.80;99.90
20803;DHT22;10562;-33.856;151.182;2023-01-13T11:21:47;22.80;99.90
20803;DHT22;10562;-33.856;151.182;2023-01-13T11:24:26;22.70;99.90
20803;DHT22;10562;-33.856;151.182;2023-01-13T11:27:05;22.70;99.90
20803;DHT22;10562;-33.856;151.182;2023-01-13T11:29:46;22.60;99.90
20803;DHT22;10562;-33.856;151.182;2023-01-13T11:32:21;22.60;99.90
20803;DHT22;10562;-33.856;151.182;2023-01-13T11:34:59;22.60;99.90
20803;DHT22;10562;-33.856;151.182;2023-01-13T11:37:34;22.60;99.90
20803;DHT22;10562;-33.856;151.182;2023-01-13T11:40:13;22.60;99.90
20803;DHT22;10562;-33.856;151.182;2023-01-13T11:42:47;22.70;99.90
20803;DHT22;10562;-33.856;151.182;2023-01-13T11:45:25;22.60;99.90
20803;DHT22;10562;-33.856;151.182;2023-01-13T11:48:01;22.60;99.90
20803;DHT22;10562;-33.856;151.182;2023-01-13T11:50:41;22.60;99.90
20803;DHT22;10562;-33.856;151.182;2023-01-13T11:53:27;22.60;99.90
20803;DHT22;10562;-33.856;151.182;2023-01-13T11:56:16;22.60;99.90
20803;DHT22;10562;-33.856;151.182;2023-01-13T11:59:13;22.60;99.90
20803;DHT22;10562;-33.856;151.182;2023-01-13T12:02:01;22.60;99.90
20803;DHT22;10562;-33.856;151.182;2023-01-13T12:04:42;22.60;99.90
20803;DHT22;10562;-33.856;151.182;2023-01-13T12:07:21;22.50;99.90
20803;DHT22;10562;-33.856;151.182;2023-01-13T12:10:05;22.50;99.90
20803;DHT22;10562;-33.856;151.182;2023-01-13T12:12:45;22.60;99.90
20803;DHT22;10562;-33.856;151.182;2023-01-13T12:15:42;22.50;99.90
20803;DHT22;10562;-33.856;151.182;2023-01-13T12:18:35;22.60;99.90
20803;DHT22;10562;-33.856;151.182;2023-01-13T12:21:20;22.40;99.90
20803;DHT22;10562;-33.856;151.182;2023-01-13T12:24:04;22.40;99.90
20803;DHT22;10562;-33.856;151.182;2023-01-13T12:26:40;22.40;99.90
20803;DHT22;10562;-33.856;151.182;2023-01-13T12:29:15;22.30;99.90
20803;DHT22;10562;-33.856;151.182;2023-01-13T12:31:49;22.30;99.90
20803;DHT22;10562;-33.856;151.182;2023-01-13T12:34:30;22.30;99.90
20803;DHT22;10562;-33.856;151.182;2023-01-13T12:37:10;22.30;99.90
20803;DHT22;10562;-33.856;151.182;2023-01-13T12:39:53;22.40;99.90
20803;DHT22;10562;-33.856;151.182;2023-01-13T12:42:30;22.30;99.90
20803;DHT22;10562;-33.856;151.182;2023-01-13T12:45:36;22.30;99.90
20803;DHT22;10562;-33.856;151.182;2023-01-13T12:48:17;22.30;99.90
20803;DHT22;10562;-33.856;151.182;2023-01-13T12:51:22;22.30;99.90
20803;DHT22;10562;-33.856;151.182;2023-01-13T12:53:54;22.20;99.90
20803;DHT22;10562;-33.856;151.182;2023-01-13T12:56:48;22.20;99.90
20803;DHT22;10562;-33.856;151.182;2023-01-13T12:59:44;22.20;99.90
20803;DHT22;10562;-33.856;151.182;2023-01-13T13:02:29;22.20;99.90
20803;DHT22;10562;-33.856;151.182;2023-01-13T13:05:36;22.20;99.90
20803;DHT22;10562;-33.856;151.182;2023-01-13T13:08:20;22.10;99.90
20803;DHT22;10562;-33.856;151.182;2023-01-13T13:11:01;22.10;99.90
20803;DHT22;10562;-33.856;151.182;2023-01-13T13:13:57;22.10;99.90
20803;DHT22;10562;-33.856;151.182;2023-01-13T13:16:50;22.10;99.90
20803;DHT22;10562;-33.856;151.182;2023-01-13T13:19:40;22.10;99.90
20803;DHT22;10562;-33.856;151.182;2023-01-13T13:22:37;22.10;99.90
20803;DHT22;10562;-33.856;151.182;2023-01-13T13:25:24;22.10;99.90
20803;DHT22;10562;-33.856;151.182;2023-01-13T13:31:24;22.10;99.90
20803;DHT22;10562;-33.856;151.182;2023-01-13T13:34:24;22.10;99.90
20803;DHT22;10562;-33.856;151.182;2023-01-13T13:37:20;22.10;99.90
20803;DHT22;10562;-33.856;151.182;2023-01-13T13:39:56;22.10;99.90
20803;DHT22;10562;-33.856;151.182;2023-01-13T13:42:46;22.00;99.90
20803;DHT22;10562;-33.856;151.182;2023-01-13T13:45:34;22.10;99.90
20803;DHT22;10562;-33.856;151.182;2023-01-13T13:48:24;22.00;99.90
20803;DHT22;10562;-33.856;151.182;2023-01-13T13:50:56;22.00;99.90
20803;DHT22;10562;-33.856;151.182;2023-01-13T13:53:30;22.00;99.90
20803;DHT22;10562;-33.856;151.182;2023-01-13T13:56:03;22.00;99.90
20803;DHT22;10562;-33.856;151.182;2023-01-13T13:58:36;22.00;99.90
20803;DHT22;10562;-33.856;151.182;2023-01-13T14:01:14;22.00;99.90
20803;DHT22;10562;-33.856;151.182;2023-01-13T14:04:03;22.00;99.90
20803;DHT22;10562;-33.856;151.182;2023-01-13T14:06:35;22.00;99.90
20803;DHT22;10562;-33.856;151.182;2023-01-13T14:09:16;22.00;99.90
20803;DHT22;10562;-33.856;151.182;2023-01-13T14:11:56;21.90;99.90
20803;DHT22;10562;-33.856;151.182;2023-01-13T14:14:28;21.90;99.90
20803;DHT22;10562;-33.856;151.182;2023-01-13T14:17:00;21.90;99.90
20803;DHT22;10562;-33.856;151.182;2023-01-13T14:19:36;21.90;99.90
20803;DHT22;10562;-33.856;151.182;2023-01-13T14:22:15;21.80;99.90
20803;DHT22;10562;-33.856;151.182;2023-01-13T14:24:47;21.80;99.90
20803;DHT22;10562;-33.856;151.182;2023-01-13T14:27:23;21.80;99.90
20803;DHT22;10562;-33.856;151.182;2023-01-13T14:29:55;21.70;99.90
20803;DHT22;10562;-33.856;151.182;2023-01-13T14:32:30;21.80;99.90
20803;DHT22;10562;-33.856;151.182;2023-01-13T14:35:06;21.80;99.90
20803;DHT22;10562;-33.856;151.182;2023-01-13T14:37:38;21.80;99.90
20803;DHT22;10562;-33.856;151.182;2023-01-13T14:40:38;21.80;99.90
20803;DHT22;10562;-33.856;151.182;2023-01-13T14:43:14;21.80;99.90
20803;DHT22;10562;-33.856;151.182;2023-01-13T14:45:55;21.80;99.90
20803;DHT22;10562;-33.856;151.182;2023-01-13T14:48:29;21.80;99.90
20803;DHT22;10562;-33.856;151.182;2023-01-13T14:51:06;21.70;99.90
20803;DHT22;10562;-33.856;151.182;2023-01-13T14:53:40;21.70;99.90
20803;DHT22;10562;-33.856;151.182;2023-01-13T14:56:38;21.70;99.90
20803;DHT22;10562;-33.856;151.182;2023-01-13T15:02:37;21.60;99.90
20803;DHT22;10562;-33.856;151.182;2023-01-13T15:05:29;21.70;99.90
20803;DHT22;10562;-33.856;151.182;2023-01-13T15:08:16;21.70;99.90
20803;DHT22;10562;-33.856;151.182;2023-01-13T15:10:49;21.70;99.90
20803;DHT22;10562;-33.856;151.182;2023-01-13T15:13:25;21.70;99.90
20803;DHT22;10562;-33.856;151.182;2023-01-13T15:15:57;21.60;99.90
20803;DHT22;10562;-33.856;151.182;2023-01-13T15:18:29;21.60;99.90
20803;DHT22;10562;-33.856;151.182;2023-01-13T15:21:00;21.60;99.90
20803;DHT22;10562;-33.856;151.182;2023-01-13T15:23:32;21.60;99.90
20803;DHT22;10562;-33.856;151.182;2023-01-13T15:26:05;21.60;99.90
20803;DHT22;10562;-33.856;151.182;2023-01-13T15:28:39;21.50;99.90
20803;DHT22;10562;-33.856;151.182;2023-01-13T15:31:09;21.50;99.90
20803;DHT22;10562;-33.856;151.182;2023-01-13T15:33:40;21.50;99.90
20803;DHT22;10562;-33.856;151.182;2023-01-13T15:36:25;21.60;99.90
20803;DHT22;10562;-33.856;151.182;2023-01-13T15:38:59;21.50;99.90
20803;DHT22;10562;-33.856;151.182;2023-01-13T15:41:30;21.50;99.90
20803;DHT22;10562;-33.856;151.182;2023-01-13T15:44:16;21.50;99.90
20803;DHT22;10562;-33.856;151.182;2023-01-13T15:47:05;21.40;99.90
20803;DHT22;10562;-33.856;151.182;2023-01-13T15:49:38;21.40;99.90
20803;DHT22;10562;-33.856;151.182;2023-01-13T15:52:18;21.50;99.90
20803;DHT22;10562;-33.856;151.182;2023-01-13T15:54:51;21.60;99.90
20803;DHT22;10562;-33.856;151.182;2023-01-13T15:57:23;21.60;99.90